createdAt,value
2019-03-05T00:01:52.857Z,3.43
2019-03-05T00:06:47.597Z,3.87
2019-03-05T00:11:42.362Z,3.57
2019-03-05T00:16:37.095Z,3.50
2019-03-05T00:21:31.823Z,3.03
2019-03-05T00:26:29.830Z,3.47
2019-03-05T00:31:29.413Z,3.40
2019-03-05T00:36:32.157Z,3.20
2019-03-05T00:41:33.353Z,3.13
2019-03-05T00:47:10.838Z,3.53
2019-03-05T00:52:26.119Z,2.80
2019-03-05T00:57:59.108Z,2.83
2019-03-05T01:03:12.589Z,2.77
2019-03-05T01:08:07.413Z,2.50
2019-03-05T01:13:02.114Z,2.40
2019-03-05T01:17:57.154Z,2.33
2019-03-05T01:22:51.887Z,2.20
2019-03-05T01:27:47.112Z,2.80
2019-03-05T01:32:47.613Z,2.50
2019-03-05T01:37:42.345Z,2.40
2019-03-05T01:42:37.168Z,2.30
2019-03-05T01:47:31.968Z,2.30
2019-03-05T01:52:26.837Z,2.33
2019-03-05T01:57:21.891Z,1.90
2019-03-05T02:02:17.217Z,2.07
2019-03-05T02:07:12.007Z,1.77
2019-03-05T02:12:06.820Z,1.67
2019-03-05T02:17:01.570Z,2.10
2019-03-05T02:21:56.619Z,1.60
2019-03-05T02:27:53.749Z,1.80
2019-03-05T02:33:06.145Z,1.80
2019-03-05T02:38:34.591Z,1.50
2019-03-05T02:43:52.291Z,1.87
2019-03-05T02:49:37.431Z,1.80
2019-03-05T02:54:53.983Z,2.03
2019-03-05T02:59:49.036Z,2.13
2019-03-05T03:04:47.036Z,2.23
2019-03-05T03:10:13.723Z,2.03
2019-03-05T03:15:17.181Z,2.50
2019-03-05T03:20:15.013Z,2.10
2019-03-05T03:25:11.565Z,1.90
2019-03-05T03:30:08.018Z,1.80
2019-03-05T03:35:02.767Z,2.53
2019-03-05T03:39:57.515Z,2.13
2019-03-05T03:44:52.271Z,2.87
2019-03-05T03:49:47.004Z,2.57
2019-03-05T03:54:42.041Z,2.40
2019-03-05T03:59:36.774Z,2.97
2019-03-05T04:04:31.507Z,2.53
2019-03-05T04:09:26.241Z,2.70
2019-03-05T04:14:21.279Z,1.70
2019-03-05T04:19:19.078Z,1.30
2019-03-05T04:24:13.889Z,1.50
2019-03-05T04:29:08.803Z,2.00
2019-03-05T04:34:03.569Z,2.37
2019-03-05T04:38:58.415Z,2.40
2019-03-05T04:43:53.164Z,2.70
2019-03-05T04:49:07.292Z,2.57
2019-03-05T04:54:02.024Z,3.00
2019-03-05T04:58:56.753Z,3.43
2019-03-05T05:03:51.788Z,3.83
2019-03-05T05:08:46.522Z,3.40
2019-03-05T05:13:41.506Z,3.10
2019-03-05T05:18:36.489Z,3.10
2019-03-05T05:23:31.265Z,3.40
2019-03-05T05:28:26.014Z,3.33
2019-03-05T05:33:20.760Z,3.60
2019-03-05T05:38:15.504Z,3.73
2019-03-05T05:43:13.234Z,3.73
2019-03-05T05:48:08.457Z,3.80
2019-03-05T05:53:03.194Z,3.60
2019-03-05T05:57:57.936Z,3.37
2019-03-05T06:02:52.670Z,3.13
2019-03-05T06:07:47.397Z,3.70
2019-03-05T06:12:42.125Z,3.00
2019-03-05T06:17:36.870Z,2.80
2019-03-05T06:22:31.595Z,3.00
2019-03-05T06:27:26.389Z,2.63
2019-03-05T06:32:21.586Z,3.17
2019-03-05T06:37:16.327Z,2.73
2019-03-05T06:42:11.832Z,3.00
2019-03-05T06:47:06.563Z,2.60
2019-03-05T06:52:01.295Z,2.63
2019-03-05T06:56:56.032Z,2.40
2019-03-05T07:01:51.057Z,3.10
2019-03-05T07:06:56.398Z,2.60
2019-03-05T07:12:22.028Z,2.37
2019-03-05T07:17:39.777Z,2.47
2019-03-05T07:23:02.961Z,2.50
2019-03-05T07:27:58.666Z,2.70
2019-03-05T07:32:54.225Z,1.97
2019-03-05T07:37:48.973Z,3.23
2019-03-05T07:42:43.718Z,2.17
2019-03-05T07:47:38.447Z,2.50
2019-03-05T07:52:33.178Z,2.20
2019-03-05T07:57:27.903Z,2.57
2019-03-05T08:02:22.650Z,2.20
2019-03-05T08:07:17.583Z,2.20
2019-03-05T08:12:43.937Z,2.77
2019-03-05T08:17:39.016Z,2.30
2019-03-05T08:22:33.803Z,2.37
2019-03-05T08:27:28.664Z,2.57
2019-03-05T08:32:23.383Z,1.93
2019-03-05T08:37:18.118Z,1.90
2019-03-05T08:42:12.844Z,2.00
2019-03-05T08:47:07.621Z,1.80
2019-03-05T08:52:02.885Z,1.93
2019-03-05T08:56:57.891Z,2.10
2019-03-05T09:01:53.017Z,1.60
2019-03-05T09:06:48.578Z,2.10
2019-03-05T09:11:43.345Z,2.07
2019-03-05T09:16:38.081Z,2.20
2019-03-05T09:21:39.042Z,2.33
2019-03-05T09:32:04.653Z,2.40
2019-03-05T09:37:01.461Z,2.60
2019-03-05T09:41:56.626Z,2.23
2019-03-05T09:46:52.246Z,2.53
2019-03-05T09:51:47.041Z,2.43
2019-03-05T09:56:42.261Z,2.33
2019-03-05T10:01:37.134Z,2.27
2019-03-05T10:06:37.048Z,2.53
2019-03-05T10:11:32.294Z,2.40
2019-03-05T10:22:22.244Z,2.13
2019-03-05T10:27:17.334Z,2.33
2019-03-05T10:32:12.235Z,2.20
2019-03-05T10:37:12.575Z,2.20
2019-03-05T10:42:04.114Z,1.93
2019-03-05T10:46:59.109Z,2.40
2019-03-05T10:51:54.149Z,2.20
2019-03-05T10:56:48.905Z,1.90
2019-03-05T11:01:44.061Z,2.13
2019-03-05T11:06:38.977Z,2.10
2019-03-05T11:11:33.733Z,2.00
2019-03-05T11:16:31.047Z,1.83
2019-03-05T11:21:24.981Z,2.00
2019-03-05T11:26:19.801Z,1.90
2019-03-05T11:31:14.548Z,2.10
2019-03-05T11:36:09.375Z,2.50
2019-03-05T11:41:04.202Z,2.43
2019-03-05T11:46:02.407Z,5.80
2019-03-05T11:50:57.518Z,2.17
2019-03-05T11:55:52.701Z,1.90
2019-03-05T12:01:02.646Z,1.60
2019-03-05T12:05:57.467Z,1.67
2019-03-05T12:10:53.556Z,2.40
2019-03-05T12:15:48.399Z,1.90
2019-03-05T12:20:43.492Z,2.03
2019-03-05T12:25:39.995Z,2.00
2019-03-05T12:30:35.309Z,2.40
2019-03-05T12:35:30.369Z,2.53
2019-03-05T12:40:25.299Z,1.40
2019-03-05T12:45:20.327Z,1.10
2019-03-05T12:50:17.072Z,1.10
2019-03-05T12:55:12.382Z,1.40
2019-03-05T13:00:10.218Z,1.07
2019-03-05T13:05:06.399Z,1.00
2019-03-05T13:10:02.581Z,1.40
2019-03-05T13:14:57.483Z,1.20
2019-03-05T13:19:53.675Z,1.60
2019-03-05T13:24:50.320Z,1.47
2019-03-05T13:29:45.077Z,1.00
2019-03-05T13:34:40.074Z,1.10
2019-03-05T13:39:34.948Z,0.80
2019-03-05T13:44:34.306Z,1.10
2019-03-05T13:50:04.532Z,1.90
2019-03-05T13:55:27.931Z,1.43
2019-03-05T14:00:23.112Z,1.20
2019-03-05T14:05:43.057Z,1.17
2019-03-05T14:10:37.959Z,1.30
2019-03-05T14:15:33.548Z,1.30
2019-03-05T14:20:35.245Z,2.10
2019-03-05T14:25:30.104Z,1.60
2019-03-05T14:30:25.331Z,1.67
2019-03-05T14:35:22.068Z,1.60
2019-03-05T14:40:24.645Z,1.60
2019-03-05T14:45:21.450Z,1.70
2019-03-05T14:50:16.277Z,1.87
2019-03-05T14:55:11.166Z,1.60
2019-03-05T15:00:13.798Z,1.50
2019-03-05T15:05:09.276Z,1.20
2019-03-05T15:10:10.190Z,1.10
2019-03-05T15:15:07.224Z,1.60
2019-03-05T15:20:02.980Z,1.63
2019-03-05T15:24:57.740Z,1.27
2019-03-05T15:29:55.755Z,1.07
2019-03-05T15:34:50.503Z,1.10
2019-03-05T15:39:45.293Z,1.30
2019-03-05T15:44:40.022Z,1.40
2019-03-05T15:49:34.793Z,1.23
2019-03-05T15:54:31.543Z,1.50
2019-03-05T15:59:26.629Z,1.20
2019-03-05T16:04:21.305Z,1.30
2019-03-05T16:09:17.797Z,1.20
2019-03-05T16:14:12.848Z,1.40
2019-03-05T16:19:07.596Z,2.27
2019-03-05T16:24:02.853Z,2.27
2019-03-05T16:28:57.993Z,1.80
2019-03-05T16:34:13.229Z,1.90
2019-03-05T16:39:18.476Z,2.50
2019-03-05T16:44:32.281Z,2.70
2019-03-05T16:49:45.759Z,3.80
2019-03-05T16:55:00.401Z,2.57
2019-03-05T17:00:04.820Z,3.00
2019-03-05T17:05:14.350Z,3.80
2019-03-05T17:10:27.361Z,3.83
2019-03-05T17:15:25.396Z,7.80
2019-03-05T17:20:20.209Z,5.60
2019-03-05T17:25:17.309Z,4.70
2019-03-05T17:30:15.980Z,2.10
2019-03-05T17:35:16.941Z,2.30
2019-03-05T17:40:17.964Z,2.20
2019-03-05T17:45:16.263Z,3.67
2019-03-05T17:50:11.415Z,2.03
2019-03-05T17:55:08.151Z,2.60
2019-03-05T18:00:03.083Z,5.40
2019-03-05T18:04:58.340Z,5.27
2019-03-05T18:09:53.082Z,4.00
2019-03-05T18:14:47.838Z,3.20
2019-03-05T18:19:48.428Z,4.30
2019-03-05T18:24:43.486Z,4.33
2019-03-05T18:29:38.381Z,5.13
2019-03-05T18:34:33.141Z,10.13
2019-03-05T18:39:28.026Z,9.97
2019-03-05T18:44:23.256Z,9.30
2019-03-05T18:49:18.106Z,4.60
2019-03-05T18:54:18.690Z,3.30
2019-03-05T18:59:15.466Z,3.30
2019-03-05T19:04:10.935Z,3.37
2019-03-05T19:09:07.260Z,3.70
2019-03-05T19:14:02.385Z,4.43
2019-03-05T19:18:57.136Z,5.53
2019-03-05T19:23:54.727Z,4.10
2019-03-05T19:28:49.814Z,3.97
2019-03-05T19:33:44.557Z,3.27
2019-03-05T19:38:39.739Z,2.90
2019-03-05T19:43:34.645Z,4.07
2019-03-05T19:48:31.589Z,3.10
2019-03-05T19:53:26.333Z,3.23
2019-03-05T19:58:21.325Z,5.90
2019-03-05T20:03:16.253Z,3.20
2019-03-05T20:08:11.382Z,3.70
2019-03-05T20:13:12.103Z,3.80
2019-03-05T20:18:07.516Z,3.97
2019-03-05T20:23:02.411Z,4.27
2019-03-05T20:27:57.527Z,4.90
2019-03-05T20:32:52.414Z,6.00
2019-03-05T20:37:47.590Z,6.03
2019-03-05T20:42:42.416Z,5.80
2019-03-05T20:47:37.221Z,6.00
2019-03-05T20:52:32.639Z,5.87
2019-03-05T20:57:28.062Z,6.20
2019-03-05T21:02:25.075Z,5.73
2019-03-05T21:07:19.816Z,5.90
2019-03-05T21:12:14.757Z,24.03
2019-03-05T21:17:09.772Z,14.33
2019-03-05T21:22:04.601Z,22.70
2019-03-05T21:26:59.496Z,15.80
2019-03-05T21:31:54.350Z,9.90
2019-03-05T21:36:49.726Z,8.90
2019-03-05T21:41:44.478Z,8.03
2019-03-05T21:46:39.215Z,7.27
2019-03-05T21:51:34.323Z,11.37
2019-03-05T21:56:29.191Z,8.60
2019-03-05T22:01:24.279Z,8.90
2019-03-05T22:06:19.118Z,9.73
2019-03-05T22:11:13.974Z,9.37
2019-03-05T22:16:09.133Z,9.47
2019-03-05T22:21:04.276Z,10.37
2019-03-05T22:25:59.378Z,10.47
2019-03-05T22:30:54.265Z,10.03
2019-03-05T22:35:49.081Z,9.10
2019-03-05T22:40:43.843Z,9.57
2019-03-05T22:45:38.661Z,9.37
2019-03-05T22:50:33.431Z,9.40
2019-03-05T22:55:28.291Z,9.27
2019-03-05T23:01:01.868Z,9.10
2019-03-05T23:05:56.655Z,10.00
2019-03-05T23:10:52.492Z,10.77
2019-03-05T23:15:47.267Z,10.43
2019-03-05T23:20:42.623Z,11.47
2019-03-05T23:25:37.470Z,12.20
2019-03-05T23:30:32.566Z,12.40
2019-03-05T23:35:27.458Z,12.00
2019-03-05T23:40:22.285Z,12.70
2019-03-05T23:45:17.160Z,12.83
2019-03-05T23:50:12.019Z,12.13
2019-03-05T23:55:07.008Z,11.03
